createdAt,value
2018-07-07T00:00:11.474Z,52.81
2018-07-07T00:01:11.520Z,52.33
2018-07-07T00:02:11.421Z,52.71
2018-07-07T00:03:11.431Z,52.91
2018-07-07T00:04:11.383Z,52.81
2018-07-07T00:05:11.461Z,53.28
2018-07-07T00:06:11.322Z,54.34
2018-07-07T00:07:11.355Z,53.48
2018-07-07T00:08:11.277Z,53.67
2018-07-07T00:09:12.312Z,54.34
2018-07-07T00:10:11.231Z,54.24
2018-07-07T00:11:11.275Z,54.05
2018-07-07T00:12:11.190Z,54.05
2018-07-07T00:13:11.212Z,54.34
2018-07-07T00:14:11.164Z,54.34
2018-07-07T00:15:11.207Z,54.53
2018-07-07T00:16:11.124Z,54.63
2018-07-07T00:17:11.162Z,54.53
2018-07-07T00:18:11.058Z,55.21
2018-07-07T00:19:11.135Z,54.63
2018-07-07T00:20:11.025Z,54.91
2018-07-07T00:21:11.042Z,54.53
2018-07-07T00:22:10.985Z,54.72
2018-07-07T00:23:11.052Z,54.91
2018-07-07T00:24:10.912Z,55.58
2018-07-07T00:25:11.985Z,55.58
2018-07-07T00:26:10.863Z,56.45
2018-07-07T00:27:10.901Z,56.54
2018-07-07T00:28:10.831Z,55.87
2018-07-07T00:29:10.891Z,55.78
2018-07-07T00:30:10.798Z,55.01
2018-07-07T00:31:10.821Z,56.26
2018-07-07T00:32:10.741Z,57.21
2018-07-07T00:33:56.688Z,56.35
2018-07-07T00:34:56.704Z,56.45
2018-07-07T00:35:56.617Z,55.21
2018-07-07T00:36:57.621Z,55.11
2018-07-07T00:37:56.579Z,55.21
2018-07-07T00:38:56.613Z,55.49
2018-07-07T00:39:56.516Z,55.21
2018-07-07T00:40:57.551Z,54.79
2018-07-07T00:41:56.468Z,54.82
2018-07-07T00:42:56.532Z,54.89
2018-07-07T00:43:56.423Z,55.18
2018-07-07T00:44:56.496Z,55.08
2018-07-07T00:45:56.380Z,55.36
2018-07-07T00:46:56.545Z,55.27
2018-07-07T00:47:56.339Z,55.08
2018-07-07T00:48:57.402Z,55.36
2018-07-07T00:49:56.296Z,55.85
2018-07-07T00:50:56.295Z,55.75
2018-07-07T00:51:56.240Z,55.85
2018-07-07T00:52:56.298Z,55.56
2018-07-07T00:53:56.197Z,55.75
2018-07-07T00:54:57.231Z,56.13
2018-07-07T00:55:56.155Z,56.52
2018-07-07T00:56:56.230Z,56.52
2018-07-07T00:57:56.118Z,56.61
2018-07-07T00:58:56.134Z,57.09
2018-07-07T00:59:56.054Z,56.81
2018-07-07T01:00:56.152Z,56.23
2018-07-07T01:01:56.020Z,56.61
2018-07-07T01:02:56.056Z,56.71
2018-07-07T01:03:55.972Z,56.99
2018-07-07T01:04:55.960Z,56.90
2018-07-07T01:05:55.945Z,56.71
2018-07-07T01:06:57.013Z,56.99
2018-07-07T01:07:55.879Z,56.52
2018-07-07T01:08:57.938Z,57.19
2018-07-07T01:09:55.835Z,56.99
2018-07-07T01:10:55.901Z,56.97
2018-07-07T01:11:55.785Z,56.97
2018-07-07T01:12:55.814Z,57.16
2018-07-07T01:13:55.735Z,56.87
2018-07-07T01:14:55.828Z,57.06
2018-07-07T01:15:55.696Z,56.68
2018-07-07T01:16:57.787Z,56.97
2018-07-07T01:17:55.663Z,56.87
2018-07-07T01:19:01.495Z,57.16
2018-07-07T01:19:55.592Z,57.64
2018-07-07T01:20:55.659Z,57.45
2018-07-07T01:21:55.565Z,57.45
2018-07-07T01:22:55.570Z,56.97
2018-07-07T01:23:55.510Z,56.59
2018-07-07T01:24:55.610Z,57.54
2018-07-07T01:25:55.454Z,57.73
2018-07-07T01:26:55.497Z,58.12
2018-07-07T01:27:55.409Z,57.92
2018-07-07T01:28:55.508Z,57.92
2018-07-07T01:29:55.377Z,58.22
2018-07-07T01:30:55.418Z,58.98
2018-07-07T01:31:55.332Z,59.55
2018-07-07T01:32:55.331Z,58.98
2018-07-07T01:33:55.272Z,59.45
2018-07-07T01:34:56.373Z,60.89
2018-07-07T01:35:55.231Z,59.36
2018-07-07T01:36:55.252Z,59.08
2018-07-07T01:37:55.203Z,59.27
2018-07-07T01:38:55.281Z,58.98
2018-07-07T01:39:55.144Z,58.88
2018-07-07T01:40:55.178Z,58.88
2018-07-07T01:41:55.085Z,58.98
2018-07-07T01:42:55.104Z,59.27
2018-07-07T01:43:55.040Z,60.13
2018-07-07T01:44:55.094Z,59.65
2018-07-07T01:45:54.996Z,59.65
2018-07-07T01:46:55.024Z,60.13
2018-07-07T01:47:54.969Z,59.94
2018-07-07T01:48:55.029Z,60.13
2018-07-07T01:49:54.898Z,59.94
2018-07-07T01:50:54.928Z,60.03
2018-07-07T01:51:54.857Z,60.51
2018-07-07T01:52:54.956Z,60.13
2018-07-07T01:53:54.816Z,60.32
2018-07-07T01:54:54.853Z,60.03
2018-07-07T01:55:54.763Z,60.13
2018-07-07T01:56:54.767Z,60.41
2018-07-07T01:57:54.726Z,60.61
2018-07-07T01:58:55.810Z,60.80
2018-07-07T01:59:54.675Z,61.37
2018-07-07T02:00:54.689Z,61.57
2018-07-07T02:01:54.633Z,62.33
2018-07-07T02:02:55.728Z,62.43
2018-07-07T02:03:54.576Z,62.71
2018-07-07T02:04:54.612Z,62.43
2018-07-07T02:05:54.524Z,62.43
2018-07-07T02:06:54.523Z,62.71
2018-07-07T02:07:54.487Z,62.23
2018-07-07T02:08:54.542Z,62.07
2018-07-07T02:09:54.436Z,62.84
2018-07-07T02:10:54.453Z,63.13
2018-07-07T02:11:54.390Z,63.32
2018-07-07T02:12:54.463Z,63.42
2018-07-07T02:13:54.336Z,64.15
2018-07-07T02:15:41.777Z,64.66
2018-07-07T02:16:41.823Z,65.01
2018-07-07T02:17:41.690Z,65.01
2018-07-07T02:18:41.716Z,65.11
2018-07-07T02:19:41.660Z,65.68
2018-07-07T02:20:41.730Z,65.49
2018-07-07T02:21:41.604Z,65.39
2018-07-07T02:22:41.626Z,65.52
2018-07-07T02:23:41.551Z,65.97
2018-07-07T02:24:41.627Z,66.16
2018-07-07T02:25:41.517Z,65.88
2018-07-07T02:26:41.541Z,66.45
2018-07-07T02:27:41.479Z,66.64
2018-07-07T02:28:41.473Z,66.74
2018-07-07T02:29:41.428Z,66.54
2018-07-07T02:30:41.472Z,66.64
2018-07-07T02:31:41.368Z,67.21
2018-07-07T02:32:41.375Z,67.21
2018-07-07T02:33:41.323Z,67.79
2018-07-07T02:34:41.395Z,68.07
2018-07-07T02:35:41.276Z,68.36
2018-07-07T02:36:41.306Z,67.98
2018-07-07T02:37:41.256Z,68.17
2018-07-07T02:38:41.316Z,68.36
2018-07-07T02:39:41.197Z,68.46
2018-07-07T02:41:28.323Z,68.55
2018-07-07T02:42:28.344Z,68.65
2018-07-07T02:43:28.245Z,68.65
2018-07-07T02:44:28.256Z,68.46
2018-07-07T02:45:28.207Z,68.46
2018-07-07T02:46:29.288Z,68.74
2018-07-07T02:47:28.154Z,69.23
2018-07-07T02:48:29.192Z,69.03
2018-07-07T02:49:28.108Z,69.51
2018-07-07T02:50:28.180Z,69.80
2018-07-07T02:51:28.059Z,69.60
2018-07-07T02:52:29.174Z,69.99
2018-07-07T02:53:28.003Z,69.60
2018-07-07T02:54:27.999Z,70.28
2018-07-07T02:55:27.954Z,70.18
2018-07-07T02:56:28.036Z,70.18
2018-07-07T02:57:27.917Z,70.47
2018-07-07T02:58:27.926Z,70.47
2018-07-07T02:59:27.872Z,70.85
2018-07-07T03:00:27.949Z,70.66
2018-07-07T03:01:27.816Z,70.85
2018-07-07T03:02:27.849Z,71.30
2018-07-07T03:03:27.797Z,71.23
2018-07-07T03:04:27.793Z,71.11
2018-07-07T03:05:27.745Z,71.48
2018-07-07T03:06:27.772Z,71.68
2018-07-07T03:07:27.675Z,71.77
2018-07-07T03:08:28.706Z,72.06
2018-07-07T03:09:27.653Z,71.48
2018-07-07T03:10:27.695Z,72.06
2018-07-07T03:11:27.582Z,72.06
2018-07-07T03:12:27.607Z,72.16
2018-07-07T03:13:27.532Z,71.97
2018-07-07T03:14:27.518Z,71.97
2018-07-07T03:15:27.482Z,72.54
2018-07-07T03:16:27.552Z,72.25
2018-07-07T03:17:27.440Z,72.06
2018-07-07T03:18:27.445Z,72.34
2018-07-07T03:19:27.384Z,71.87
2018-07-07T03:20:27.473Z,71.87
2018-07-07T03:21:27.341Z,72.34
2018-07-07T03:22:27.366Z,72.34
2018-07-07T03:23:27.307Z,72.63
2018-07-07T03:24:27.385Z,72.63
2018-07-07T03:25:27.269Z,73.30
2018-07-07T03:26:27.289Z,73.40
2018-07-07T03:27:27.207Z,73.97
2018-07-07T03:28:27.222Z,74.45
2018-07-07T03:29:27.164Z,74.70
2018-07-07T03:30:27.218Z,74.80
2018-07-07T03:31:27.114Z,74.51
2018-07-07T03:32:28.154Z,75.18
2018-07-07T03:33:27.062Z,75.18
2018-07-07T03:34:27.141Z,74.80
2018-07-07T03:35:27.006Z,74.80
2018-07-07T03:36:27.092Z,74.84
2018-07-07T03:37:26.964Z,75.27
2018-07-07T03:38:26.963Z,75.56
2018-07-07T03:39:26.915Z,75.66
2018-07-07T03:40:26.972Z,75.66
2018-07-07T03:41:26.865Z,75.66
2018-07-07T03:42:26.997Z,75.56
2018-07-07T03:43:26.814Z,76.62
2018-07-07T03:44:26.899Z,76.23
2018-07-07T03:45:26.767Z,76.42
2018-07-07T03:46:27.837Z,76.81
2018-07-07T03:47:26.727Z,76.81
2018-07-07T03:48:26.726Z,77.09
2018-07-07T03:49:26.752Z,76.90
2018-07-07T03:50:26.737Z,77.19
2018-07-07T03:51:26.635Z,76.81
2018-07-07T03:52:26.641Z,77.28
2018-07-07T03:53:26.594Z,77.95
2018-07-07T03:54:26.658Z,77.57
2018-07-07T03:55:26.537Z,78.34
2018-07-07T03:56:27.590Z,78.63
2018-07-07T03:57:26.489Z,78.24
2018-07-07T03:58:26.583Z,78.49
2018-07-07T03:59:26.444Z,78.81
2018-07-07T04:00:26.495Z,78.81
2018-07-07T04:01:26.404Z,78.87
2018-07-07T04:02:26.399Z,78.72
2018-07-07T04:03:26.360Z,78.81
2018-07-07T04:04:26.425Z,78.81
2018-07-07T04:05:26.322Z,79.20
2018-07-07T04:06:26.318Z,79.20
2018-07-07T04:07:26.250Z,79.64
2018-07-07T04:08:26.339Z,79.68
2018-07-07T04:09:26.205Z,80.25
2018-07-07T04:10:26.248Z,79.96
2018-07-07T04:11:26.146Z,79.29
2018-07-07T04:12:26.167Z,79.39
2018-07-07T04:13:26.115Z,79.68
2018-07-07T04:15:19.105Z,79.39
2018-07-07T04:16:19.133Z,79.58
2018-07-07T04:18:12.538Z,79.39
2018-07-07T04:19:12.426Z,79.39
2018-07-07T04:20:12.532Z,79.96
2018-07-07T04:21:12.374Z,79.77
2018-07-07T04:22:12.394Z,79.77
2018-07-07T04:23:12.328Z,80.16
2018-07-07T04:24:12.314Z,79.87
2018-07-07T04:25:12.274Z,79.77
2018-07-07T04:26:12.317Z,79.87
2018-07-07T04:27:12.221Z,80.06
2018-07-07T04:28:12.229Z,80.25
2018-07-07T04:29:12.174Z,79.77
2018-07-07T04:30:12.252Z,80.06
2018-07-07T04:31:12.129Z,79.96
2018-07-07T04:32:12.155Z,79.96
2018-07-07T04:33:12.086Z,80.06
2018-07-07T04:34:12.173Z,79.96
2018-07-07T04:35:12.030Z,79.87
2018-07-07T04:36:12.084Z,79.58
2018-07-07T04:37:11.988Z,79.77
2018-07-07T04:38:11.988Z,80.16
2018-07-07T04:39:11.930Z,79.58
2018-07-07T04:40:12.022Z,79.68
2018-07-07T04:41:11.882Z,79.29
2018-07-07T04:42:11.919Z,79.68
2018-07-07T04:43:11.857Z,79.58
2018-07-07T04:44:11.922Z,80.06
2018-07-07T04:45:11.793Z,79.96
2018-07-07T04:46:11.835Z,79.58
2018-07-07T04:47:11.737Z,79.58
2018-07-07T04:48:12.778Z,80.06
2018-07-07T04:49:11.687Z,79.81
2018-07-07T04:50:11.768Z,79.91
2018-07-07T04:51:11.652Z,80.00
2018-07-07T04:52:11.672Z,79.52
2018-07-07T04:53:11.614Z,79.33
2018-07-07T04:54:11.687Z,79.43
2018-07-07T04:55:11.575Z,79.43
2018-07-07T04:56:11.592Z,79.91
2018-07-07T04:57:11.496Z,79.81
2018-07-07T04:58:11.495Z,79.72
2018-07-07T04:59:11.452Z,79.81
2018-07-07T05:00:22.061Z,79.81
2018-07-07T05:01:11.409Z,79.91
2018-07-07T05:02:18.100Z,79.57
2018-07-07T05:03:11.352Z,79.57
2018-07-07T05:04:17.991Z,78.80
2018-07-07T05:05:11.324Z,79.18
2018-07-07T05:06:35.031Z,78.42
2018-07-07T05:48:15.854Z,77.44
2018-07-07T05:49:15.786Z,77.15
2018-07-07T05:50:15.871Z,77.53
2018-07-07T05:51:15.749Z,76.96
2018-07-07T05:52:15.766Z,76.86
2018-07-07T05:53:15.703Z,76.96
2018-07-07T05:54:15.794Z,77.44
2018-07-07T05:55:15.645Z,77.06
2018-07-07T05:56:15.706Z,76.77
2018-07-07T05:57:15.604Z,77.15
2018-07-07T05:58:16.641Z,77.44
2018-07-07T05:59:15.533Z,77.92
2018-07-07T06:00:15.642Z,78.59
2018-07-07T06:01:15.519Z,78.40
2018-07-07T06:02:15.546Z,78.49
2018-07-07T06:03:15.450Z,78.49
2018-07-07T06:04:15.547Z,77.73
2018-07-07T06:05:15.410Z,77.34
2018-07-07T06:06:15.373Z,77.25
2018-07-07T06:07:15.475Z,77.19
2018-07-07T06:08:15.324Z,77.15
2018-07-07T06:09:15.376Z,76.96
2018-07-07T06:10:15.301Z,77.34
2018-07-07T06:11:15.395Z,77.06
2018-07-07T06:12:15.236Z,77.38
2018-07-07T06:13:15.302Z,76.23
2018-07-07T06:14:15.183Z,76.67
2018-07-07T06:15:15.212Z,76.42
2018-07-07T06:16:15.133Z,77.00
2018-07-07T06:17:15.269Z,76.52
2018-07-07T06:18:15.123Z,75.65
2018-07-07T06:19:15.052Z,74.89
2018-07-07T06:20:15.058Z,75.65
2018-07-07T06:21:16.072Z,75.65
2018-07-07T06:22:15.028Z,75.95
2018-07-07T06:23:16.109Z,75.65
2018-07-07T06:24:14.939Z,74.83
2018-07-07T06:25:14.972Z,73.39
2018-07-07T06:26:14.891Z,73.58
2018-07-07T06:27:15.008Z,73.58
2018-07-07T06:28:14.847Z,73.58
2018-07-07T06:29:14.904Z,73.58
2018-07-07T06:30:14.810Z,73.58
2018-07-07T06:31:14.915Z,74.73
2018-07-07T06:32:14.760Z,74.26
2018-07-07T06:33:14.831Z,74.16
2018-07-07T06:34:14.717Z,73.49
2018-07-07T06:35:14.841Z,73.77
2018-07-07T06:36:14.657Z,73.39
2018-07-07T06:37:14.769Z,73.87
2018-07-07T06:38:14.617Z,73.77
2018-07-07T06:39:14.582Z,73.39
2018-07-07T06:40:14.675Z,72.85
2018-07-07T06:41:14.538Z,73.58
2018-07-07T06:42:14.580Z,73.81
2018-07-07T06:43:14.491Z,73.62
2018-07-07T06:44:14.462Z,72.85
2018-07-07T06:45:14.610Z,73.62
2018-07-07T06:46:14.410Z,72.66
2018-07-07T06:47:35.402Z,72.47
2018-07-07T06:48:14.369Z,72.18
2018-07-07T06:49:19.133Z,72.81
2018-07-07T06:50:14.386Z,72.47
2018-07-07T06:51:25.080Z,72.66
2018-07-07T06:52:14.300Z,72.28
2018-07-07T06:54:12.250Z,72.28
2018-07-07T06:55:13.235Z,72.18
2018-07-07T06:56:12.114Z,72.08
2018-07-07T06:57:18.976Z,71.98
2018-07-07T06:58:12.049Z,71.80
2018-07-07T06:59:14.166Z,72.28
2018-07-07T07:00:11.998Z,71.98
2018-07-07T07:01:14.095Z,72.18
2018-07-07T07:02:11.948Z,71.61
2018-07-07T07:03:23.036Z,71.22
2018-07-07T07:04:11.915Z,70.84
2018-07-07T07:05:14.014Z,71.22
2018-07-07T07:06:11.865Z,70.17
2018-07-07T07:07:12.025Z,70.07
2018-07-07T07:08:11.806Z,69.81
2018-07-07T07:09:12.930Z,70.01
2018-07-07T07:10:11.757Z,69.14
2018-07-07T07:11:18.449Z,68.47
2018-07-07T07:12:11.711Z,66.74
2018-07-07T07:13:13.755Z,66.36
2018-07-07T07:14:11.663Z,66.84
2018-07-07T07:15:12.735Z,66.93
2018-07-07T07:16:11.616Z,66.07
2018-07-07T07:17:12.661Z,66.64
2018-07-07T07:18:11.561Z,66.84
2018-07-07T07:19:23.425Z,66.74
2018-07-07T07:20:11.512Z,67.13
2018-07-07T07:21:16.494Z,67.22
2018-07-07T07:22:11.467Z,66.84
2018-07-07T07:23:12.591Z,67.03
2018-07-07T07:24:11.446Z,67.80
2018-07-07T07:25:18.448Z,68.18
2018-07-07T07:27:42.018Z,68.08
2018-07-07T07:28:54.607Z,67.41
2018-07-07T07:29:41.912Z,67.03
2018-07-07T07:30:43.113Z,67.03
2018-07-07T07:31:41.864Z,66.36
2018-07-07T07:32:41.902Z,66.46
2018-07-07T07:33:41.849Z,65.78
2018-07-07T07:34:47.641Z,66.39
2018-07-07T07:35:41.771Z,66.10
2018-07-07T07:36:46.558Z,65.23
2018-07-07T07:37:41.722Z,65.14
2018-07-07T07:38:41.744Z,65.23
2018-07-07T07:39:41.672Z,64.76
2018-07-07T07:40:43.719Z,63.32
2018-07-07T07:41:41.621Z,62.84
2018-07-07T07:42:41.672Z,62.74
2018-07-07T07:43:41.575Z,62.93
2018-07-07T07:44:41.682Z,63.99
2018-07-07T07:45:41.549Z,64.76
2018-07-07T07:46:48.036Z,65.23
2018-07-07T07:47:41.482Z,64.95
2018-07-07T07:49:02.456Z,64.50
2018-07-07T07:49:41.443Z,64.22
2018-07-07T07:50:41.412Z,64.22
2018-07-07T07:51:41.415Z,64.22
2018-07-07T07:52:41.422Z,64.02
2018-07-07T07:53:42.462Z,63.25
2018-07-07T07:55:27.661Z,62.96
2018-07-07T07:56:27.562Z,62.38
2018-07-07T07:57:28.654Z,62.87
2018-07-07T07:58:27.503Z,63.25
2018-07-07T07:59:27.491Z,63.25
2018-07-07T08:00:28.571Z,64.40
2018-07-07T08:01:27.427Z,63.73
2018-07-07T08:02:28.487Z,63.25
2018-07-07T08:03:27.403Z,63.35
2018-07-07T08:04:33.414Z,63.06
2018-07-07T08:05:27.334Z,62.99
2018-07-07T08:06:33.935Z,62.80
2018-07-07T08:07:27.285Z,62.51
2018-07-07T08:08:38.963Z,62.51
2018-07-07T08:09:27.237Z,63.09
2018-07-07T08:10:39.903Z,62.51
2018-07-07T08:11:27.184Z,62.13
2018-07-07T08:12:38.915Z,62.61
2018-07-07T08:13:27.128Z,64.53
2018-07-07T08:14:38.909Z,62.71
2018-07-07T08:15:27.084Z,62.61
2018-07-07T08:16:27.144Z,62.51
2018-07-07T08:17:27.037Z,62.32
2018-07-07T08:18:27.056Z,62.32
2018-07-07T08:19:26.983Z,62.32
2018-07-07T08:20:27.070Z,61.65
2018-07-07T08:21:26.945Z,60.24
2018-07-07T08:22:27.001Z,60.24
2018-07-07T08:24:16.442Z,59.17
2018-07-07T08:25:16.394Z,59.75
2018-07-07T08:26:16.358Z,59.75
2018-07-07T08:27:16.331Z,59.75
2018-07-07T08:28:16.308Z,60.42
2018-07-07T08:29:27.127Z,62.67
2018-07-07T08:30:16.275Z,60.24
2018-07-07T08:31:17.324Z,59.17
2018-07-07T08:32:16.246Z,58.40
2018-07-07T08:33:27.165Z,57.73
2018-07-07T08:35:03.171Z,58.15
2018-07-07T08:36:02.015Z,58.44
2018-07-07T08:37:23.004Z,58.05
2018-07-07T08:38:01.989Z,58.24
2018-07-07T08:39:01.941Z,59.17
2018-07-07T08:40:07.540Z,59.01
2018-07-07T08:41:01.907Z,59.20
2018-07-07T08:42:02.970Z,58.53
2018-07-07T08:43:01.857Z,57.67
2018-07-07T08:44:01.956Z,58.05
2018-07-07T08:45:01.812Z,58.05
2018-07-07T08:46:01.845Z,57.86
2018-07-07T08:47:01.763Z,57.57
2018-07-07T08:48:47.693Z,56.63
2018-07-07T08:49:47.668Z,56.92
2018-07-07T08:50:48.657Z,56.05
2018-07-07T08:51:47.606Z,55.96
2018-07-07T08:52:47.710Z,55.77
2018-07-07T08:53:47.558Z,55.77
2018-07-07T08:54:47.655Z,56.15
2018-07-07T08:55:47.504Z,56.15
2018-07-07T08:56:47.577Z,56.05
2018-07-07T08:57:47.465Z,56.63
2018-07-07T08:58:47.476Z,57.40
2018-07-07T08:59:47.420Z,57.89
2018-07-07T09:00:47.496Z,56.27
2018-07-07T09:01:47.374Z,55.60
2018-07-07T09:02:47.345Z,55.51
2018-07-07T09:03:47.331Z,54.74
2018-07-07T09:04:49.377Z,54.93
2018-07-07T09:05:47.289Z,55.24
2018-07-07T09:07:33.043Z,55.41
2018-07-07T09:08:32.958Z,55.24
2018-07-07T09:09:33.019Z,54.96
2018-07-07T09:10:32.969Z,54.96
2018-07-07T09:12:25.772Z,54.86
2018-07-07T09:13:25.719Z,54.38
2018-07-07T09:14:25.813Z,54.76
2018-07-07T09:15:25.664Z,54.96
2018-07-07T09:16:25.632Z,54.96
2018-07-07T09:17:25.930Z,54.76
2018-07-07T09:18:25.708Z,53.83
2018-07-07T09:19:25.577Z,53.31
2018-07-07T09:20:25.553Z,54.28
2018-07-07T09:21:31.254Z,54.18
2018-07-07T09:22:25.499Z,54.28
2018-07-07T09:23:25.534Z,53.89
2018-07-07T09:24:25.471Z,53.89
2018-07-07T09:25:31.199Z,53.89
2018-07-07T09:26:25.407Z,54.38
2018-07-07T09:27:25.412Z,54.09
2018-07-07T09:28:25.363Z,54.18
2018-07-07T09:29:25.351Z,54.66
2018-07-07T09:30:25.398Z,55.46
2018-07-07T09:31:25.289Z,54.11
2018-07-07T09:32:25.315Z,54.31
2018-07-07T09:33:25.246Z,53.17
2018-07-07T09:34:31.261Z,52.89
2018-07-07T09:35:25.208Z,52.89
2018-07-07T09:36:26.239Z,53.37
2018-07-07T09:37:25.160Z,53.27
2018-07-07T09:38:29.739Z,52.40
2018-07-07T09:39:25.114Z,52.89
2018-07-07T09:40:35.693Z,53.44
2018-07-07T09:41:25.071Z,53.47
2018-07-07T09:42:25.050Z,52.59
2018-07-07T09:43:25.061Z,52.31
2018-07-07T09:44:25.019Z,52.59
2018-07-07T09:45:25.095Z,52.40
2018-07-07T09:46:24.954Z,52.28
2018-07-07T09:47:27.038Z,52.86
2018-07-07T09:50:49.021Z,53.15
2018-07-07T09:51:48.999Z,53.34
2018-07-07T09:52:48.992Z,53.05
2018-07-07T09:53:50.022Z,54.31
2018-07-07T09:54:48.909Z,53.83
2018-07-07T09:55:48.890Z,53.37
2018-07-07T09:56:48.851Z,53.47
2018-07-07T09:57:48.929Z,52.31
2018-07-07T09:58:48.825Z,52.62
2018-07-07T09:59:49.006Z,52.62
2018-07-07T10:00:48.770Z,52.04
2018-07-07T10:01:48.869Z,51.46
2018-07-07T10:02:48.724Z,50.98
2018-07-07T10:03:53.661Z,50.50
2018-07-07T10:04:48.672Z,50.43
2018-07-07T10:05:48.792Z,50.43
2018-07-07T10:06:48.626Z,50.23
2018-07-07T10:07:48.672Z,50.62
2018-07-07T10:08:48.581Z,49.95
2018-07-07T10:09:48.590Z,50.31
2018-07-07T10:10:48.544Z,51.20
2018-07-07T10:11:48.610Z,51.17
2018-07-07T10:12:48.515Z,50.69
2018-07-07T10:13:48.619Z,51.37
2018-07-07T10:14:48.463Z,51.10
2018-07-07T10:15:50.464Z,50.13
2018-07-07T10:16:48.411Z,49.75
2018-07-07T10:17:48.447Z,49.95
2018-07-07T10:18:48.355Z,49.65
2018-07-07T10:19:48.351Z,50.23
2018-07-07T10:20:48.367Z,50.33
2018-07-07T10:21:49.399Z,49.75
2018-07-07T10:22:48.303Z,50.04
2018-07-07T10:23:49.306Z,49.87
2018-07-07T10:24:48.227Z,49.97
2018-07-07T10:25:48.204Z,49.10
2018-07-07T10:26:53.093Z,48.79
2018-07-07T10:27:48.150Z,48.11
2018-07-07T10:28:49.227Z,48.30
2018-07-07T10:29:48.108Z,47.43
2018-07-07T10:30:48.116Z,48.01
2018-07-07T10:31:48.080Z,47.91
2018-07-07T10:32:53.685Z,48.39
2018-07-07T10:33:48.039Z,48.71
2018-07-07T10:34:49.078Z,47.94
2018-07-07T10:35:48.029Z,48.03
2018-07-07T10:40:24.751Z,46.10
2018-07-07T10:41:23.107Z,46.30
2018-07-07T10:42:23.158Z,46.39
2018-07-07T10:43:23.039Z,48.23
2018-07-07T10:44:23.054Z,46.80
2018-07-07T10:45:23.023Z,45.25
2018-07-07T10:46:23.023Z,45.45
2018-07-07T10:47:23.002Z,44.96
2018-07-07T10:48:23.046Z,44.77
2018-07-07T10:49:22.906Z,44.87
2018-07-07T10:50:22.965Z,44.96
2018-07-07T10:51:23.031Z,44.77
2018-07-07T10:52:23.950Z,45.64
2018-07-07T10:53:22.814Z,44.38
2018-07-07T10:54:22.953Z,43.99
2018-07-07T10:55:22.805Z,44.87
2018-07-07T10:56:22.803Z,45.04
2018-07-07T10:57:22.752Z,44.84
2018-07-07T10:58:22.799Z,46.12
2018-07-07T10:59:22.696Z,44.19
2018-07-07T11:00:22.674Z,45.64
2018-07-07T11:01:22.661Z,44.50
2018-07-07T11:02:22.631Z,44.79
2018-07-07T11:03:22.610Z,44.89
2018-07-07T11:04:22.595Z,44.23
2018-07-07T11:05:22.577Z,44.23
2018-07-07T11:06:22.539Z,43.37
2018-07-07T11:07:22.548Z,42.88
2018-07-07T11:08:22.492Z,43.05
2018-07-07T11:09:22.569Z,42.83
2018-07-07T11:10:22.460Z,43.80
2018-07-07T11:11:22.424Z,44.57
2018-07-07T11:12:22.484Z,44.67
2018-07-07T11:13:22.402Z,43.34
2018-07-07T11:14:22.722Z,43.92
2018-07-07T11:15:22.347Z,43.82
2018-07-07T11:16:22.321Z,44.57
2018-07-07T11:17:22.309Z,44.67
2018-07-07T11:18:22.282Z,44.94
2018-07-07T11:19:22.277Z,45.64
2018-07-07T11:20:22.279Z,47.38
2018-07-07T11:21:22.205Z,44.67
2018-07-07T11:22:23.282Z,44.98
2018-07-07T11:23:22.214Z,44.60
2018-07-07T11:24:22.167Z,44.67
2018-07-07T11:25:22.147Z,44.79
2018-07-07T11:26:22.199Z,44.12
2018-07-07T11:27:22.088Z,43.90
2018-07-07T11:28:22.091Z,43.71
2018-07-07T11:30:09.519Z,42.47
2018-07-07T11:31:09.454Z,43.05
2018-07-07T11:32:09.429Z,42.86
2018-07-07T11:33:09.453Z,43.05
2018-07-07T11:34:09.398Z,43.54
2018-07-07T11:35:09.474Z,42.76
2018-07-07T11:36:09.343Z,42.37
2018-07-07T11:37:09.485Z,41.50
2018-07-07T11:38:09.292Z,42.28
2018-07-07T11:39:09.271Z,42.37
2018-07-07T11:40:09.301Z,42.45
2018-07-07T11:41:09.247Z,42.76
2018-07-07T11:42:09.554Z,43.15
2018-07-07T11:43:09.189Z,42.76
2018-07-07T11:44:09.164Z,42.66
2018-07-07T11:45:09.156Z,43.34
2018-07-07T11:46:09.136Z,42.86
2018-07-07T11:47:09.149Z,43.05
2018-07-07T11:47:55.114Z,42.86
2018-07-07T11:48:55.064Z,42.86
2018-07-07T11:49:55.044Z,43.82
2018-07-07T11:50:55.023Z,43.82
2018-07-07T11:51:55.001Z,43.27
2018-07-07T11:52:54.984Z,43.17
2018-07-07T11:53:54.961Z,42.20
2018-07-07T11:54:54.933Z,42.30
2018-07-07T11:55:54.974Z,42.20
2018-07-07T11:56:54.923Z,42.59
2018-07-07T11:57:54.904Z,42.49
2018-07-07T11:58:40.656Z,42.59
2018-07-07T11:59:40.567Z,43.37
2018-07-07T12:00:40.605Z,42.88
2018-07-07T12:01:40.541Z,42.22
2018-07-07T12:02:40.492Z,43.87
2018-07-07T12:03:40.472Z,43.12
2018-07-07T12:04:40.573Z,41.47
2018-07-07T12:05:40.490Z,41.56
2018-07-07T12:06:40.440Z,40.99
2018-07-07T12:07:40.391Z,41.47
2018-07-07T12:08:40.387Z,42.22
2018-07-07T12:10:29.521Z,43.27
2018-07-07T12:11:26.012Z,43.85
2018-07-07T12:12:27.067Z,43.46
2018-07-07T12:13:25.953Z,43.82
2018-07-07T12:14:27.065Z,44.02
2018-07-07T12:15:25.912Z,43.73
2018-07-07T12:16:25.999Z,43.73
2018-07-07T12:17:26.096Z,43.82
2018-07-07T12:18:26.177Z,43.82
2018-07-07T12:19:25.843Z,44.12
2018-07-07T12:20:25.928Z,43.85
2018-07-07T12:22:11.579Z,43.85
2018-07-07T12:23:11.516Z,43.27
2018-07-07T12:24:11.563Z,43.37
2018-07-07T12:25:11.517Z,43.46
2018-07-07T12:26:11.442Z,43.65
2018-07-07T12:27:11.527Z,43.75
2018-07-07T12:28:11.407Z,43.27
2018-07-07T12:29:11.395Z,43.85
2018-07-07T12:30:57.184Z,43.85
2018-07-07T12:31:56.971Z,43.46
2018-07-07T12:32:57.258Z,43.65
2018-07-07T12:33:59.317Z,43.37
2018-07-07T12:36:29.489Z,43.85
2018-07-07T12:37:29.599Z,43.07
2018-07-07T12:38:29.605Z,42.88
2018-07-07T12:39:29.426Z,42.78
2018-07-07T12:40:29.426Z,42.97
2018-07-07T12:41:29.583Z,43.58
2018-07-07T12:42:29.459Z,42.78
2018-07-07T12:43:29.366Z,43.38
2018-07-07T12:44:29.380Z,43.87
2018-07-07T12:45:29.289Z,42.41
2018-07-07T12:46:29.268Z,42.32
2018-07-07T12:48:14.937Z,42.34
2018-07-07T12:49:14.912Z,42.22
2018-07-07T12:50:14.922Z,42.03
2018-07-07T12:51:14.849Z,42.32
2018-07-07T12:52:14.838Z,42.03
2018-07-07T12:53:14.802Z,42.54
2018-07-07T12:54:14.790Z,41.37
2018-07-07T12:55:14.763Z,41.47
2018-07-07T12:56:14.864Z,41.47
2018-07-07T12:57:14.731Z,42.34
2018-07-07T12:59:13.929Z,41.49
2018-07-07T13:00:14.964Z,44.30
2018-07-07T13:01:13.895Z,41.97
2018-07-07T13:02:13.975Z,40.34
2018-07-07T13:03:13.798Z,40.64
2018-07-07T13:04:13.793Z,40.44
2018-07-07T13:05:13.763Z,40.64
2018-07-07T13:06:13.736Z,41.30
2018-07-07T13:07:13.781Z,41.51
2018-07-07T13:08:13.724Z,41.31
2018-07-07T13:09:13.694Z,40.92
2018-07-07T13:10:13.654Z,41.20
2018-07-07T13:11:13.706Z,41.58
2018-07-07T13:12:13.621Z,41.30
2018-07-07T13:13:13.632Z,41.47
2018-07-07T13:14:13.578Z,41.49
2018-07-07T13:15:13.563Z,41.56
2018-07-07T13:16:13.707Z,42.24
2018-07-07T13:17:13.548Z,42.36
2018-07-07T13:18:13.548Z,41.88
2018-07-07T13:19:13.467Z,42.36
2018-07-07T13:20:13.457Z,42.05
2018-07-07T13:21:13.444Z,42.34
2018-07-07T13:22:13.780Z,41.68
2018-07-07T13:23:13.389Z,41.68
2018-07-07T13:24:13.367Z,41.49
2018-07-07T13:25:13.395Z,41.39
2018-07-07T13:26:13.318Z,41.58
2018-07-07T13:27:13.414Z,41.68
2018-07-07T13:28:13.266Z,41.76
2018-07-07T13:29:13.257Z,42.34
2018-07-07T13:30:13.240Z,42.92
2018-07-07T13:31:14.265Z,42.54
2018-07-07T13:32:13.188Z,42.54
2018-07-07T13:33:14.316Z,42.54
2018-07-07T13:34:13.146Z,43.60
2018-07-07T13:35:13.162Z,43.48
2018-07-07T13:36:13.111Z,43.38
2018-07-07T13:37:13.174Z,43.29
2018-07-07T13:38:13.074Z,43.77
2018-07-07T13:39:13.082Z,43.85
2018-07-07T13:40:13.020Z,43.77
2018-07-07T13:41:13.012Z,43.68
2018-07-07T13:42:12.994Z,43.50
2018-07-07T13:43:13.002Z,43.21
2018-07-07T13:44:12.936Z,42.44
2018-07-07T13:45:14.973Z,42.46
2018-07-07T13:46:12.904Z,42.26
2018-07-07T13:47:12.902Z,42.26
2018-07-07T13:48:12.854Z,42.36
2018-07-07T13:49:58.577Z,41.78
2018-07-07T13:50:59.621Z,41.49
2018-07-07T13:51:58.503Z,42.63
2018-07-07T13:52:58.538Z,42.26
2018-07-07T13:53:58.468Z,42.24
2018-07-07T13:54:58.520Z,41.58
2018-07-07T13:55:58.429Z,41.66
2018-07-07T13:56:58.413Z,42.14